sensor_id;sensor_type;location;lat;lon;timestamp;pressure;altitude;pressure_sealevel;temperature;humidity
79538;BME280;68989;52.032;5.152;2024-01-16T00:01:22;101027.39;;;6.55;60.65
79538;BME280;68989;52.032;5.152;2024-01-16T00:03:49;101032.43;;;6.54;60.65
79538;BME280;68989;52.032;5.152;2024-01-16T00:06:16;101036.89;;;6.53;60.72
79538;BME280;68989;52.032;5.152;2024-01-16T00:08:43;101036.29;;;6.53;60.46
79538;BME280;68989;52.032;5.152;2024-01-16T00:11:10;101033.22;;;6.51;60.47
79538;BME280;68989;52.032;5.152;2024-01-16T00:13:37;101032.90;;;6.50;60.62
79538;BME280;68989;52.032;5.152;2024-01-16T00:16:05;101034.49;;;6.49;60.67
79538;BME280;68989;52.032;5.152;2024-01-16T00:18:32;101029.29;;;6.48;60.70
79538;BME280;68989;52.032;5.152;2024-01-16T00:21:01;101031.47;;;6.48;60.63
79538;BME280;68989;52.032;5.152;2024-01-16T00:23:28;101031.16;;;6.47;60.62
79538;BME280;68989;52.032;5.152;2024-01-16T00:25:55;101033.76;;;6.47;60.60
79538;BME280;68989;52.032;5.152;2024-01-16T00:28:22;101032.65;;;6.46;60.59
79538;BME280;68989;52.032;5.152;2024-01-16T00:30:49;101033.35;;;6.46;60.61
79538;BME280;68989;52.032;5.152;2024-01-16T00:33:16;101029.38;;;6.46;60.52
79538;BME280;68989;52.032;5.152;2024-01-16T00:35:43;101033.55;;;6.45;60.52
79538;BME280;68989;52.032;5.152;2024-01-16T00:38:10;101036.02;;;6.43;60.51
79538;BME280;68989;52.032;5.152;2024-01-16T00:40:37;101042.74;;;6.43;60.52
79538;BME280;68989;52.032;5.152;2024-01-16T00:43:04;101047.31;;;6.42;60.60
79538;BME280;68989;52.032;5.152;2024-01-16T00:45:31;101049.67;;;6.42;60.64
79538;BME280;68989;52.032;5.152;2024-01-16T00:47:58;101049.82;;;6.41;60.61
79538;BME280;68989;52.032;5.152;2024-01-16T00:50:25;101054.57;;;6.41;60.60
79538;BME280;68989;52.032;5.152;2024-01-16T00:52:52;101054.89;;;6.40;60.68
79538;BME280;68989;52.032;5.152;2024-01-16T00:55:19;101057.25;;;6.40;60.69
79538;BME280;68989;52.032;5.152;2024-01-16T00:57:46;101065.03;;;6.41;60.66
79538;BME280;68989;52.032;5.152;2024-01-16T01:00:13;101061.50;;;6.41;60.73
79538;BME280;68989;52.032;5.152;2024-01-16T01:02:40;101062.05;;;6.41;60.73
79538;BME280;68989;52.032;5.152;2024-01-16T01:05:07;101063.64;;;6.42;60.71
79538;BME280;68989;52.032;5.152;2024-01-16T01:07:34;101063.24;;;6.43;60.82
79538;BME280;68989;52.032;5.152;2024-01-16T01:10:01;101065.44;;;6.44;60.77
79538;BME280;68989;52.032;5.152;2024-01-16T01:12:29;101061.38;;;6.44;60.76
79538;BME280;68989;52.032;5.152;2024-01-16T01:14:56;101059.73;;;6.45;60.78
79538;BME280;68989;52.032;5.152;2024-01-16T01:17:23;101061.00;;;6.46;60.80
79538;BME280;68989;52.032;5.152;2024-01-16T01:19:50;101061.64;;;6.46;60.75
79538;BME280;68989;52.032;5.152;2024-01-16T01:22:17;101060.82;;;6.46;60.82
79538;BME280;68989;52.032;5.152;2024-01-16T01:24:44;101066.85;;;6.46;60.93
79538;BME280;68989;52.032;5.152;2024-01-16T01:27:11;101074.08;;;6.47;60.78
79538;BME280;68989;52.032;5.152;2024-01-16T01:29:38;101076.54;;;6.48;60.74
79538;BME280;68989;52.032;5.152;2024-01-16T01:32:05;101067.84;;;6.48;60.76
79538;BME280;68989;52.032;5.152;2024-01-16T01:34:32;101063.65;;;6.48;60.85
79538;BME280;68989;52.032;5.152;2024-01-16T01:36:59;101065.71;;;6.48;60.89
79538;BME280;68989;52.032;5.152;2024-01-16T01:39:26;101066.88;;;6.49;60.89
79538;BME280;68989;52.032;5.152;2024-01-16T01:41:54;101070.68;;;6.50;60.88
79538;BME280;68989;52.032;5.152;2024-01-16T01:44:22;101075.64;;;6.51;60.83
79538;BME280;68989;52.032;5.152;2024-01-16T01:46:49;101082.07;;;6.51;60.83
79538;BME280;68989;52.032;5.152;2024-01-16T01:49:16;101089.72;;;6.52;60.96
79538;BME280;68989;52.032;5.152;2024-01-16T01:51:44;101092.95;;;6.53;60.83
79538;BME280;68989;52.032;5.152;2024-01-16T01:54:12;101091.70;;;6.53;60.72
79538;BME280;68989;52.032;5.152;2024-01-16T01:56:41;101100.47;;;6.53;60.74
79538;BME280;68989;52.032;5.152;2024-01-16T01:59:09;101101.30;;;6.53;60.88
79538;BME280;68989;52.032;5.152;2024-01-16T02:02:34;101105.45;;;6.54;61.04
79538;BME280;68989;52.032;5.152;2024-01-16T02:05:01;101102.14;;;6.54;61.05
79538;BME280;68989;52.032;5.152;2024-01-16T02:07:29;101099.20;;;6.53;61.12
79538;BME280;68989;52.032;5.152;2024-01-16T02:09:58;101094.35;;;6.54;61.16
79538;BME280;68989;52.032;5.152;2024-01-16T02:12:25;101098.82;;;6.54;61.31
79538;BME280;68989;52.032;5.152;2024-01-16T02:14:51;101097.38;;;6.55;61.32
79538;BME280;68989;52.032;5.152;2024-01-16T02:17:19;101094.16;;;6.55;61.37
79538;BME280;68989;52.032;5.152;2024-01-16T02:19:46;101084.83;;;6.57;61.40
79538;BME280;68989;52.032;5.152;2024-01-16T02:22:16;101078.69;;;6.58;61.36
79538;BME280;68989;52.032;5.152;2024-01-16T02:24:47;101069.94;;;6.58;61.45
79538;BME280;68989;52.032;5.152;2024-01-16T02:27:14;101060.66;;;6.59;61.30
79538;BME280;68989;52.032;5.152;2024-01-16T02:29:41;101049.54;;;6.60;61.27
79538;BME280;68989;52.032;5.152;2024-01-16T02:32:10;101057.02;;;6.60;61.29
79538;BME280;68989;52.032;5.152;2024-01-16T02:34:37;101064.95;;;6.61;61.24
79538;BME280;68989;52.032;5.152;2024-01-16T02:37:04;101067.72;;;6.61;61.30
79538;BME280;68989;52.032;5.152;2024-01-16T02:39:31;101060.43;;;6.62;61.21
79538;BME280;68989;52.032;5.152;2024-01-16T02:41:58;101061.16;;;6.63;61.21
79538;BME280;68989;52.032;5.152;2024-01-16T02:44:25;101062.74;;;6.63;61.14
79538;BME280;68989;52.032;5.152;2024-01-16T02:46:52;101058.83;;;6.62;61.09
79538;BME280;68989;52.032;5.152;2024-01-16T02:49:19;101057.05;;;6.62;61.04
79538;BME280;68989;52.032;5.152;2024-01-16T02:51:46;101058.73;;;6.61;61.03
79538;BME280;68989;52.032;5.152;2024-01-16T02:54:13;101055.80;;;6.60;61.06
79538;BME280;68989;52.032;5.152;2024-01-16T02:56:40;101052.47;;;6.61;61.00
79538;BME280;68989;52.032;5.152;2024-01-16T02:59:08;101053.75;;;6.61;60.95
79538;BME280;68989;52.032;5.152;2024-01-16T03:01:35;101059.24;;;6.60;61.01
79538;BME280;68989;52.032;5.152;2024-01-16T03:04:02;101064.17;;;6.59;60.97
79538;BME280;68989;52.032;5.152;2024-01-16T03:06:29;101064.83;;;6.58;61.07
79538;BME280;68989;52.032;5.152;2024-01-16T03:08:56;101069.72;;;6.58;61.14
79538;BME280;68989;52.032;5.152;2024-01-16T03:11:23;101071.27;;;6.59;60.99
79538;BME280;68989;52.032;5.152;2024-01-16T03:13:50;101074.15;;;6.59;61.09
79538;BME280;68989;52.032;5.152;2024-01-16T03:16:17;101078.63;;;6.58;61.12
79538;BME280;68989;52.032;5.152;2024-01-16T03:18:44;101084.81;;;6.58;61.10
79538;BME280;68989;52.032;5.152;2024-01-16T03:21:13;101080.42;;;6.58;61.10
79538;BME280;68989;52.032;5.152;2024-01-16T03:23:40;101078.62;;;6.59;61.08
79538;BME280;68989;52.032;5.152;2024-01-16T03:26:11;101078.11;;;6.58;61.06
79538;BME280;68989;52.032;5.152;2024-01-16T03:28:38;101079.68;;;6.59;61.06
79538;BME280;68989;52.032;5.152;2024-01-16T03:31:05;101079.82;;;6.59;61.09
79538;BME280;68989;52.032;5.152;2024-01-16T03:33:32;101077.28;;;6.58;60.98
79538;BME280;68989;52.032;5.152;2024-01-16T03:35:59;101076.68;;;6.57;60.99
79538;BME280;68989;52.032;5.152;2024-01-16T03:38:26;101075.33;;;6.56;60.94
79538;BME280;68989;52.032;5.152;2024-01-16T03:40:53;101071.22;;;6.55;61.08
79538;BME280;68989;52.032;5.152;2024-01-16T03:43:20;101069.15;;;6.55;61.02
79538;BME280;68989;52.032;5.152;2024-01-16T03:45:47;101066.60;;;6.55;60.91
79538;BME280;68989;52.032;5.152;2024-01-16T03:48:14;101063.68;;;6.54;60.88
79538;BME280;68989;52.032;5.152;2024-01-16T03:50:41;101061.96;;;6.53;60.91
79538;BME280;68989;52.032;5.152;2024-01-16T03:53:08;101060.39;;;6.52;60.95
79538;BME280;68989;52.032;5.152;2024-01-16T03:55:35;101060.57;;;6.52;60.87
79538;BME280;68989;52.032;5.152;2024-01-16T03:58:02;101060.50;;;6.51;60.99
79538;BME280;68989;52.032;5.152;2024-01-16T04:00:29;101058.73;;;6.51;60.96
79538;BME280;68989;52.032;5.152;2024-01-16T04:02:56;101056.08;;;6.50;60.95
79538;BME280;68989;52.032;5.152;2024-01-16T04:05:23;101057.33;;;6.50;61.01
79538;BME280;68989;52.032;5.152;2024-01-16T04:07:50;101057.15;;;6.50;61.13
79538;BME280;68989;52.032;5.152;2024-01-16T04:10:17;101057.89;;;6.50;61.04
79538;BME280;68989;52.032;5.152;2024-01-16T04:12:44;101053.12;;;6.49;61.06
79538;BME280;68989;52.032;5.152;2024-01-16T04:15:11;101056.15;;;6.50;61.00
79538;BME280;68989;52.032;5.152;2024-01-16T04:17:38;101056.24;;;6.50;61.08
79538;BME280;68989;52.032;5.152;2024-01-16T04:20:06;101057.90;;;6.50;61.13
79538;BME280;68989;52.032;5.152;2024-01-16T04:22:33;101055.95;;;6.50;61.17
79538;BME280;68989;52.032;5.152;2024-01-16T04:25:00;101053.72;;;6.50;61.19
79538;BME280;68989;52.032;5.152;2024-01-16T04:27:27;101057.36;;;6.51;61.25
79538;BME280;68989;52.032;5.152;2024-01-16T04:29:54;101056.84;;;6.52;61.14
79538;BME280;68989;52.032;5.152;2024-01-16T04:32:21;101054.13;;;6.52;61.19
79538;BME280;68989;52.032;5.152;2024-01-16T04:34:48;101055.02;;;6.51;61.32
79538;BME280;68989;52.032;5.152;2024-01-16T04:37:15;101056.03;;;6.52;61.26
79538;BME280;68989;52.032;5.152;2024-01-16T04:39:42;101055.08;;;6.52;61.45
79538;BME280;68989;52.032;5.152;2024-01-16T04:42:09;101051.83;;;6.54;61.47
79538;BME280;68989;52.032;5.152;2024-01-16T04:44:36;101050.13;;;6.54;61.37
79538;BME280;68989;52.032;5.152;2024-01-16T04:47:05;101047.66;;;6.55;61.40
79538;BME280;68989;52.032;5.152;2024-01-16T04:49:32;101052.57;;;6.55;61.24
79538;BME280;68989;52.032;5.152;2024-01-16T04:51:59;101049.45;;;6.56;61.48
79538;BME280;68989;52.032;5.152;2024-01-16T04:54:26;101052.41;;;6.57;61.49
79538;BME280;68989;52.032;5.152;2024-01-16T04:56:53;101050.61;;;6.59;61.27
79538;BME280;68989;52.032;5.152;2024-01-16T04:59:20;101052.78;;;6.60;61.29
79538;BME280;68989;52.032;5.152;2024-01-16T05:01:47;101046.59;;;6.61;61.23
79538;BME280;68989;52.032;5.152;2024-01-16T05:04:14;101039.76;;;6.62;61.35
79538;BME280;68989;52.032;5.152;2024-01-16T05:06:41;101036.71;;;6.63;61.20
79538;BME280;68989;52.032;5.152;2024-01-16T05:09:08;101028.96;;;6.63;61.24
79538;BME280;68989;52.032;5.152;2024-01-16T05:11:35;101026.38;;;6.63;61.21
79538;BME280;68989;52.032;5.152;2024-01-16T05:14:02;101028.19;;;6.64;61.24
79538;BME280;68989;52.032;5.152;2024-01-16T05:16:29;101027.30;;;6.64;61.34
79538;BME280;68989;52.032;5.152;2024-01-16T05:18:56;101022.64;;;6.65;61.25
79538;BME280;68989;52.032;5.152;2024-01-16T05:21:23;101016.80;;;6.65;61.22
79538;BME280;68989;52.032;5.152;2024-01-16T05:23:50;101017.28;;;6.66;61.21
79538;BME280;68989;52.032;5.152;2024-01-16T05:26:17;101017.98;;;6.68;61.10
79538;BME280;68989;52.032;5.152;2024-01-16T05:28:44;101013.94;;;6.68;61.08
79538;BME280;68989;52.032;5.152;2024-01-16T05:31:11;101014.90;;;6.67;61.18
79538;BME280;68989;52.032;5.152;2024-01-16T05:33:38;101015.35;;;6.67;61.35
79538;BME280;68989;52.032;5.152;2024-01-16T05:36:06;101015.80;;;6.67;61.30
79538;BME280;68989;52.032;5.152;2024-01-16T05:38:33;101015.62;;;6.69;61.25
79538;BME280;68989;52.032;5.152;2024-01-16T05:41:00;101010.61;;;6.68;61.17
79538;BME280;68989;52.032;5.152;2024-01-16T05:43:27;101009.91;;;6.69;61.22
79538;BME280;68989;52.032;5.152;2024-01-16T05:45:54;101007.93;;;6.69;61.35
79538;BME280;68989;52.032;5.152;2024-01-16T05:48:21;101007.55;;;6.70;61.21
79538;BME280;68989;52.032;5.152;2024-01-16T05:50:48;101003.79;;;6.70;61.13
79538;BME280;68989;52.032;5.152;2024-01-16T05:53:15;101004.82;;;6.70;61.19
79538;BME280;68989;52.032;5.152;2024-01-16T05:55:42;101001.73;;;6.70;61.14
79538;BME280;68989;52.032;5.152;2024-01-16T05:58:09;100996.81;;;6.71;61.12
79538;BME280;68989;52.032;5.152;2024-01-16T06:00:36;100993.92;;;6.71;61.21
79538;BME280;68989;52.032;5.152;2024-01-16T06:03:03;100992.06;;;6.72;61.22
79538;BME280;68989;52.032;5.152;2024-01-16T06:05:30;100990.92;;;6.72;61.35
79538;BME280;68989;52.032;5.152;2024-01-16T06:07:57;100986.87;;;6.72;61.27
79538;BME280;68989;52.032;5.152;2024-01-16T06:10:24;100986.06;;;6.73;61.32
79538;BME280;68989;52.032;5.152;2024-01-16T06:12:51;100984.35;;;6.73;61.21
79538;BME280;68989;52.032;5.152;2024-01-16T06:15:18;100987.80;;;6.73;61.34
79538;BME280;68989;52.032;5.152;2024-01-16T06:17:45;100987.55;;;6.74;61.25
79538;BME280;68989;52.032;5.152;2024-01-16T06:20:13;100988.25;;;6.74;61.21
79538;BME280;68989;52.032;5.152;2024-01-16T06:22:40;100993.29;;;6.73;61.36
79538;BME280;68989;52.032;5.152;2024-01-16T06:25:07;100997.96;;;6.74;61.28
79538;BME280;68989;52.032;5.152;2024-01-16T06:27:34;100995.66;;;6.75;61.21
79538;BME280;68989;52.032;5.152;2024-01-16T06:30:02;100995.46;;;6.74;61.21
79538;BME280;68989;52.032;5.152;2024-01-16T06:32:28;100996.19;;;6.75;61.08
79538;BME280;68989;52.032;5.152;2024-01-16T06:34:56;101002.48;;;6.73;61.06
79538;BME280;68989;52.032;5.152;2024-01-16T06:37:22;101003.59;;;6.73;61.12
79538;BME280;68989;52.032;5.152;2024-01-16T06:39:50;101008.74;;;6.72;61.02
79538;BME280;68989;52.032;5.152;2024-01-16T06:42:16;101009.32;;;6.71;61.10
79538;BME280;68989;52.032;5.152;2024-01-16T06:44:44;101008.81;;;6.71;61.27
79538;BME280;68989;52.032;5.152;2024-01-16T06:47:11;101003.94;;;6.71;61.29
79538;BME280;68989;52.032;5.152;2024-01-16T06:49:38;100997.05;;;6.71;61.15
79538;BME280;68989;52.032;5.152;2024-01-16T06:52:06;100995.11;;;6.71;61.09
79538;BME280;68989;52.032;5.152;2024-01-16T06:54:33;100996.22;;;6.71;61.00
79538;BME280;68989;52.032;5.152;2024-01-16T06:57:00;100996.27;;;6.71;61.01
79538;BME280;68989;52.032;5.152;2024-01-16T06:59:27;100995.73;;;6.70;61.02
79538;BME280;68989;52.032;5.152;2024-01-16T07:01:54;100993.61;;;6.70;60.95
79538;BME280;68989;52.032;5.152;2024-01-16T07:04:21;100990.34;;;6.68;61.03
79538;BME280;68989;52.032;5.152;2024-01-16T07:06:48;100993.23;;;6.66;61.25
79538;BME280;68989;52.032;5.152;2024-01-16T07:09:15;100994.73;;;6.67;61.17
79538;BME280;68989;52.032;5.152;2024-01-16T07:11:43;100995.98;;;6.67;61.13
79538;BME280;68989;52.032;5.152;2024-01-16T07:14:10;100997.34;;;6.67;61.26
79538;BME280;68989;52.032;5.152;2024-01-16T07:16:37;100996.45;;;6.67;61.16
79538;BME280;68989;52.032;5.152;2024-01-16T07:19:04;100999.35;;;6.67;61.16
79538;BME280;68989;52.032;5.152;2024-01-16T07:24:34;100996.82;;;5.46;63.78
79538;BME280;68989;52.032;5.152;2024-01-16T07:27:02;100996.89;;;4.75;66.47
79538;BME280;68989;52.032;5.152;2024-01-16T07:29:29;100998.79;;;4.24;68.92
79538;BME280;68989;52.032;5.152;2024-01-16T07:31:58;101008.94;;;3.88;70.94
79538;BME280;68989;52.032;5.152;2024-01-16T07:34:26;101007.27;;;3.61;72.73
79538;BME280;68989;52.032;5.152;2024-01-16T07:36:53;101014.02;;;3.42;74.07
79538;BME280;68989;52.032;5.152;2024-01-16T07:39:20;101014.81;;;3.27;75.12
79538;BME280;68989;52.032;5.152;2024-01-16T07:41:48;101016.88;;;3.16;75.90
79538;BME280;68989;52.032;5.152;2024-01-16T07:44:15;101017.77;;;3.08;76.64
79538;BME280;68989;52.032;5.152;2024-01-16T07:46:42;101016.21;;;3.01;77.15
79538;BME280;68989;52.032;5.152;2024-01-16T07:49:11;101014.09;;;2.94;77.58
79538;BME280;68989;52.032;5.152;2024-01-16T07:51:37;101014.95;;;2.90;78.03
79538;BME280;68989;52.032;5.152;2024-01-16T07:54:05;101016.06;;;2.87;78.42
79538;BME280;68989;52.032;5.152;2024-01-16T07:56:34;101015.19;;;2.84;78.71
79538;BME280;68989;52.032;5.152;2024-01-16T07:59:01;101016.54;;;2.81;78.90
79538;BME280;68989;52.032;5.152;2024-01-16T08:01:29;101020.52;;;2.78;79.09
79538;BME280;68989;52.032;5.152;2024-01-16T08:03:56;101022.25;;;2.75;79.25
79538;BME280;68989;52.032;5.152;2024-01-16T08:06:23;101018.51;;;3.26;79.44
79538;BME280;68989;52.032;5.152;2024-01-16T08:08:50;101021.53;;;4.15;75.89
79538;BME280;68989;52.032;5.152;2024-01-16T08:11:18;101012.55;;;4.78;72.81
79538;BME280;68989;52.032;5.152;2024-01-16T08:13:45;101013.83;;;5.23;70.45
79538;BME280;68989;52.032;5.152;2024-01-16T08:16:12;101011.13;;;5.54;68.73
79538;BME280;68989;52.032;5.152;2024-01-16T08:18:39;101006.99;;;5.78;67.33
79538;BME280;68989;52.032;5.152;2024-01-16T08:21:06;101008.89;;;5.94;66.14
79538;BME280;68989;52.032;5.152;2024-01-16T08:23:34;101012.83;;;6.07;65.49
79538;BME280;68989;52.032;5.152;2024-01-16T08:26:01;101017.45;;;6.17;64.96
79538;BME280;68989;52.032;5.152;2024-01-16T08:28:28;101019.22;;;6.25;64.42
79538;BME280;68989;52.032;5.152;2024-01-16T08:30:56;101017.06;;;6.30;64.14
79538;BME280;68989;52.032;5.152;2024-01-16T08:33:23;101018.27;;;6.35;63.80
79538;BME280;68989;52.032;5.152;2024-01-16T08:35:51;101023.32;;;6.39;63.46
79538;BME280;68989;52.032;5.152;2024-01-16T08:38:17;101025.74;;;6.41;63.38
79538;BME280;68989;52.032;5.152;2024-01-16T08:40:44;101022.13;;;6.45;63.09
79538;BME280;68989;52.032;5.152;2024-01-16T08:43:11;101019.71;;;6.47;63.04
79538;BME280;68989;52.032;5.152;2024-01-16T08:45:38;101017.77;;;6.48;62.87
79538;BME280;68989;52.032;5.152;2024-01-16T08:48:05;101019.18;;;6.50;62.81
79538;BME280;68989;52.032;5.152;2024-01-16T08:50:32;101018.44;;;6.51;62.74
79538;BME280;68989;52.032;5.152;2024-01-16T08:52:59;101015.57;;;6.53;62.74
79538;BME280;68989;52.032;5.152;2024-01-16T08:55:26;101021.69;;;6.55;62.60
79538;BME280;68989;52.032;5.152;2024-01-16T08:57:53;101021.56;;;6.56;62.48
79538;BME280;68989;52.032;5.152;2024-01-16T09:00:21;101023.40;;;6.57;62.46
79538;BME280;68989;52.032;5.152;2024-01-16T09:02:47;101018.97;;;6.58;62.47
79538;BME280;68989;52.032;5.152;2024-01-16T09:05:15;101020.85;;;6.59;62.47
79538;BME280;68989;52.032;5.152;2024-01-16T09:07:42;101020.59;;;6.60;62.45
79538;BME280;68989;52.032;5.152;2024-01-16T09:10:09;101020.10;;;6.61;62.44
79538;BME280;68989;52.032;5.152;2024-01-16T09:12:36;101018.66;;;6.64;62.39
79538;BME280;68989;52.032;5.152;2024-01-16T09:15:04;101020.74;;;6.65;62.31
79538;BME280;68989;52.032;5.152;2024-01-16T09:17:31;101022.09;;;6.66;62.22
79538;BME280;68989;52.032;5.152;2024-01-16T09:19:58;101015.20;;;6.66;62.38
79538;BME280;68989;52.032;5.152;2024-01-16T09:22:25;101013.42;;;6.68;62.32
79538;BME280;68989;52.032;5.152;2024-01-16T09:24:52;101014.64;;;6.70;62.19
79538;BME280;68989;52.032;5.152;2024-01-16T09:27:19;101022.06;;;6.71;62.15
79538;BME280;68989;52.032;5.152;2024-01-16T09:29:46;101026.78;;;6.72;62.16
79538;BME280;68989;52.032;5.152;2024-01-16T09:32:13;101029.90;;;6.72;62.06
79538;BME280;68989;52.032;5.152;2024-01-16T09:34:40;101030.89;;;6.72;62.13
79538;BME280;68989;52.032;5.152;2024-01-16T09:37:07;101028.28;;;6.72;61.91
79538;BME280;68989;52.032;5.152;2024-01-16T09:39:34;101024.29;;;6.73;62.05
79538;BME280;68989;52.032;5.152;2024-01-16T09:42:01;101020.34;;;6.74;61.99
79538;BME280;68989;52.032;5.152;2024-01-16T09:44:28;101013.65;;;6.75;62.06
79538;BME280;68989;52.032;5.152;2024-01-16T09:46:55;101012.24;;;6.75;62.08
79538;BME280;68989;52.032;5.152;2024-01-16T09:49:24;101009.45;;;6.77;61.99
79538;BME280;68989;52.032;5.152;2024-01-16T09:51:51;101010.79;;;6.78;62.01
79538;BME280;68989;52.032;5.152;2024-01-16T09:54:18;101016.35;;;6.78;61.94
79538;BME280;68989;52.032;5.152;2024-01-16T09:56:49;101019.11;;;6.80;61.89
79538;BME280;68989;52.032;5.152;2024-01-16T09:59:21;101011.18;;;6.80;61.88
79538;BME280;68989;52.032;5.152;2024-01-16T10:01:49;101009.21;;;6.81;61.80
79538;BME280;68989;52.032;5.152;2024-01-16T10:04:18;101013.13;;;6.82;61.81
79538;BME280;68989;52.032;5.152;2024-01-16T10:06:46;101009.10;;;6.82;61.88
79538;BME280;68989;52.032;5.152;2024-01-16T10:09:15;100999.67;;;6.83;61.78
79538;BME280;68989;52.032;5.152;2024-01-16T10:11:42;100999.27;;;6.83;61.82
79538;BME280;68989;52.032;5.152;2024-01-16T10:14:10;100991.96;;;6.84;61.79
79538;BME280;68989;52.032;5.152;2024-01-16T10:17:09;100991.23;;;6.84;61.78
79538;BME280;68989;52.032;5.152;2024-01-16T10:19:47;100994.12;;;6.85;61.42
79538;BME280;68989;52.032;5.152;2024-01-16T10:22:20;100991.51;;;6.84;61.43
79538;BME280;68989;52.032;5.152;2024-01-16T10:24:47;100988.19;;;6.83;61.67
79538;BME280;68989;52.032;5.152;2024-01-16T10:27:16;100980.19;;;6.83;61.66
79538;BME280;68989;52.032;5.152;2024-01-16T10:29:54;100980.57;;;6.84;61.54
79538;BME280;68989;52.032;5.152;2024-01-16T10:32:27;100976.27;;;6.84;61.68
79538;BME280;68989;52.032;5.152;2024-01-16T10:35:02;100977.58;;;6.85;61.55
79538;BME280;68989;52.032;5.152;2024-01-16T10:37:29;100979.23;;;6.85;61.50
79538;BME280;68989;52.032;5.152;2024-01-16T10:39:55;100977.73;;;6.87;61.45
79538;BME280;68989;52.032;5.152;2024-01-16T10:42:22;100979.63;;;6.87;61.55
79538;BME280;68989;52.032;5.152;2024-01-16T10:44:53;100984.29;;;6.87;61.46
79538;BME280;68989;52.032;5.152;2024-01-16T10:47:21;100980.77;;;6.88;61.21
79538;BME280;68989;52.032;5.152;2024-01-16T10:49:48;100978.06;;;6.88;61.27
79538;BME280;68989;52.032;5.152;2024-01-16T10:52:17;100975.28;;;6.88;61.15
79538;BME280;68989;52.032;5.152;2024-01-16T10:54:46;100976.92;;;6.89;61.01
79538;BME280;68989;52.032;5.152;2024-01-16T10:57:16;100973.75;;;6.88;61.17
79538;BME280;68989;52.032;5.152;2024-01-16T10:59:50;100974.50;;;6.89;61.20
79538;BME280;68989;52.032;5.152;2024-01-16T11:02:24;100974.31;;;6.90;61.29
79538;BME280;68989;52.032;5.152;2024-01-16T11:04:56;100971.10;;;6.90;61.12
79538;BME280;68989;52.032;5.152;2024-01-16T11:07:24;100968.29;;;6.90;61.16
79538;BME280;68989;52.032;5.152;2024-01-16T11:09:54;100963.69;;;6.89;61.54
79538;BME280;68989;52.032;5.152;2024-01-16T11:12:21;100960.28;;;6.90;61.03
79538;BME280;68989;52.032;5.152;2024-01-16T11:14:51;100951.95;;;6.92;61.14
79538;BME280;68989;52.032;5.152;2024-01-16T11:17:19;100949.09;;;6.93;60.99
79538;BME280;68989;52.032;5.152;2024-01-16T11:19:47;100946.96;;;6.94;61.15
79538;BME280;68989;52.032;5.152;2024-01-16T11:22:16;100948.07;;;6.95;61.18
79538;BME280;68989;52.032;5.152;2024-01-16T11:24:45;100943.15;;;6.95;60.97
79538;BME280;68989;52.032;5.152;2024-01-16T11:27:22;100938.37;;;6.94;60.83
79538;BME280;68989;52.032;5.152;2024-01-16T11:29:50;100941.67;;;6.92;60.97
79538;BME280;68989;52.032;5.152;2024-01-16T11:32:33;100941.72;;;6.93;60.99
79538;BME280;68989;52.032;5.152;2024-01-16T11:35:00;100935.14;;;6.94;60.97
79538;BME280;68989;52.032;5.152;2024-01-16T11:37:29;100935.78;;;6.94;61.01
79538;BME280;68989;52.032;5.152;2024-01-16T11:40:32;100935.91;;;6.94;60.87
79538;BME280;68989;52.032;5.152;2024-01-16T11:43:35;100928.62;;;6.95;61.09
79538;BME280;68989;52.032;5.152;2024-01-16T11:46:04;100930.98;;;6.98;60.97
79538;BME280;68989;52.032;5.152;2024-01-16T11:48:31;100924.91;;;7.00;60.82
79538;BME280;68989;52.032;5.152;2024-01-16T11:50:59;100924.73;;;6.99;60.60
79538;BME280;68989;52.032;5.152;2024-01-16T11:53:34;100927.14;;;7.00;60.59
79538;BME280;68989;52.032;5.152;2024-01-16T11:57:25;100929.22;;;6.98;60.63
79538;BME280;68989;52.032;5.152;2024-01-16T11:59:59;100927.24;;;6.99;60.77
79538;BME280;68989;52.032;5.152;2024-01-16T12:02:46;100922.64;;;7.00;60.64
79538;BME280;68989;52.032;5.152;2024-01-16T12:05:13;100920.86;;;7.01;60.61
79538;BME280;68989;52.032;5.152;2024-01-16T12:07:46;100919.66;;;7.02;60.64
79538;BME280;68989;52.032;5.152;2024-01-16T12:10:13;100921.54;;;7.03;60.52
79538;BME280;68989;52.032;5.152;2024-01-16T12:12:40;100915.41;;;7.04;60.41
79538;BME280;68989;52.032;5.152;2024-01-16T12:15:13;100910.29;;;7.04;60.39
79538;BME280;68989;52.032;5.152;2024-01-16T12:17:52;100912.14;;;7.04;60.45
79538;BME280;68989;52.032;5.152;2024-01-16T12:20:20;100912.88;;;7.05;60.58
79538;BME280;68989;52.032;5.152;2024-01-16T12:22:53;100914.63;;;7.06;60.46
79538;BME280;68989;52.032;5.152;2024-01-16T12:25:21;100911.14;;;7.08;60.59
79538;BME280;68989;52.032;5.152;2024-01-16T12:27:55;100906.82;;;7.10;60.59
79538;BME280;68989;52.032;5.152;2024-01-16T12:30:24;100905.57;;;7.11;60.43
79538;BME280;68989;52.032;5.152;2024-01-16T12:32:50;100907.77;;;7.12;60.47
79538;BME280;68989;52.032;5.152;2024-01-16T12:35:20;100902.19;;;7.13;60.48
79538;BME280;68989;52.032;5.152;2024-01-16T12:37:58;100899.58;;;7.14;60.49
79538;BME280;68989;52.032;5.152;2024-01-16T12:40:25;100893.70;;;7.15;60.27
79538;BME280;68989;52.032;5.152;2024-01-16T12:42:52;100890.86;;;7.17;60.48
79538;BME280;68989;52.032;5.152;2024-01-16T12:45:20;100881.58;;;7.17;60.17
79538;BME280;68989;52.032;5.152;2024-01-16T12:47:51;100886.02;;;7.18;60.16
79538;BME280;68989;52.032;5.152;2024-01-16T12:50:20;100883.70;;;7.17;59.84
79538;BME280;68989;52.032;5.152;2024-01-16T12:52:47;100884.84;;;7.16;60.04
79538;BME280;68989;52.032;5.152;2024-01-16T12:55:14;100879.84;;;7.17;60.13
79538;BME280;68989;52.032;5.152;2024-01-16T12:57:41;100880.90;;;7.17;60.09
79538;BME280;68989;52.032;5.152;2024-01-16T13:00:24;100882.25;;;7.17;60.25
79538;BME280;68989;52.032;5.152;2024-01-16T13:02:52;100878.38;;;7.18;60.00
79538;BME280;68989;52.032;5.152;2024-01-16T13:05:19;100870.19;;;7.19;60.26
79538;BME280;68989;52.032;5.152;2024-01-16T13:07:59;100869.27;;;7.17;59.93
79538;BME280;68989;52.032;5.152;2024-01-16T13:10:27;100864.17;;;7.19;60.27